sensor_id;sensor_type;location;lat;lon;timestamp;pressure;altitude;pressure_sealevel;temperature;humidity
12073;BME280;6098;49.004;8.372;2023-04-06T00:00:07;100660.70;;;5.11;58.34
12073;BME280;6098;49.004;8.372;2023-04-06T00:14:57;100649.85;;;5.00;58.55
12073;BME280;6098;49.004;8.372;2023-04-06T00:29:47;100643.97;;;4.80;58.25
12073;BME280;6098;49.004;8.372;2023-04-06T00:44:37;100645.44;;;4.64;60.41
12073;BME280;6098;49.004;8.372;2023-04-06T00:59:27;100648.02;;;4.25;61.41
12073;BME280;6098;49.004;8.372;2023-04-06T01:14:14;100635.59;;;3.97;62.59
12073;BME280;6098;49.004;8.372;2023-04-06T01:29:04;100624.38;;;3.78;63.06
12073;BME280;6098;49.004;8.372;2023-04-06T01:43:54;100608.72;;;3.69;64.33
12073;BME280;6098;49.004;8.372;2023-04-06T01:58:43;100600.98;;;3.53;65.26
12073;BME280;6098;49.004;8.372;2023-04-06T02:13:33;100601.45;;;3.49;64.83
12073;BME280;6098;49.004;8.372;2023-04-06T02:28:23;100594.45;;;3.46;65.00
12073;BME280;6098;49.004;8.372;2023-04-06T02:43:14;100582.70;;;3.43;65.27
12073;BME280;6098;49.004;8.372;2023-04-06T02:58:05;100591.55;;;3.26;66.90
12073;BME280;6098;49.004;8.372;2023-04-06T03:12:54;100584.62;;;3.10;65.95
12073;BME280;6098;49.004;8.372;2023-04-06T03:27:43;100585.61;;;2.92;65.96
12073;BME280;6098;49.004;8.372;2023-04-06T03:42:33;100584.30;;;2.93;66.78
12073;BME280;6098;49.004;8.372;2023-04-06T03:57:22;100597.41;;;2.89;65.64
12073;BME280;6098;49.004;8.372;2023-04-06T04:12:13;100605.66;;;3.00;65.67
12073;BME280;6098;49.004;8.372;2023-04-06T04:27:02;100621.80;;;2.95;67.23
12073;BME280;6098;49.004;8.372;2023-04-06T04:41:51;100629.21;;;3.00;67.08
12073;BME280;6098;49.004;8.372;2023-04-06T04:56:42;100633.59;;;2.94;66.98
12073;BME280;6098;49.004;8.372;2023-04-06T05:11:33;100647.16;;;2.91;68.66
12073;BME280;6098;49.004;8.372;2023-04-06T05:26:22;100653.69;;;2.90;67.84
12073;BME280;6098;49.004;8.372;2023-04-06T05:41:13;100668.09;;;2.91;67.63
12073;BME280;6098;49.004;8.372;2023-04-06T05:56:03;100670.23;;;2.97;67.11
12073;BME280;6098;49.004;8.372;2023-04-06T06:10:52;100675.42;;;3.15;66.20
12073;BME280;6098;49.004;8.372;2023-04-06T06:25:43;100667.42;;;3.43;65.72
12073;BME280;6098;49.004;8.372;2023-04-06T06:40:35;100661.55;;;3.75;65.62
12073;BME280;6098;49.004;8.372;2023-04-06T06:55:26;100669.11;;;4.13;64.35
12073;BME280;6098;49.004;8.372;2023-04-06T07:10:18;100659.98;;;4.55;62.31
12073;BME280;6098;49.004;8.372;2023-04-06T07:25:09;100659.39;;;5.08;60.28
12073;BME280;6098;49.004;8.372;2023-04-06T07:40:00;100661.73;;;5.62;58.92
12073;BME280;6098;49.004;8.372;2023-04-06T07:54:51;100664.09;;;6.12;58.28
12073;BME280;6098;49.004;8.372;2023-04-06T08:09:42;100666.34;;;6.58;57.32
12073;BME280;6098;49.004;8.372;2023-04-06T08:24:34;100665.41;;;7.07;55.70
12073;BME280;6098;49.004;8.372;2023-04-06T08:39:26;100652.49;;;7.57;54.23
12073;BME280;6098;49.004;8.372;2023-04-06T08:54:18;100659.09;;;8.12;51.13
12073;BME280;6098;49.004;8.372;2023-04-06T09:09:09;100648.56;;;8.64;48.89
12073;BME280;6098;49.004;8.372;2023-04-06T09:24:01;100643.23;;;9.13;48.59
12073;BME280;6098;49.004;8.372;2023-04-06T09:38:52;100639.86;;;9.51;49.08
12073;BME280;6098;49.004;8.372;2023-04-06T09:53:44;100631.95;;;10.05;48.69
12073;BME280;6098;49.004;8.372;2023-04-06T10:08:35;100632.98;;;10.41;45.30
12073;BME280;6098;49.004;8.372;2023-04-06T10:23:31;100634.33;;;10.90;41.33
12073;BME280;6098;49.004;8.372;2023-04-06T10:38:38;100627.16;;;11.17;40.23
12073;BME280;6098;49.004;8.372;2023-04-06T10:53:33;100608.52;;;11.64;36.89
12073;BME280;6098;49.004;8.372;2023-04-06T11:08:25;100592.45;;;12.42;33.98
12073;BME280;6098;49.004;8.372;2023-04-06T11:23:24;100575.87;;;12.86;36.14
12073;BME280;6098;49.004;8.372;2023-04-06T11:38:18;100561.29;;;13.14;34.55
12073;BME280;6098;49.004;8.372;2023-04-06T11:53:09;100543.05;;;13.79;34.28
12073;BME280;6098;49.004;8.372;2023-04-06T12:08:01;100533.83;;;14.12;32.63
12073;BME280;6098;49.004;8.372;2023-04-06T12:22:53;100527.00;;;14.58;31.61
12073;BME280;6098;49.004;8.372;2023-04-06T12:37:45;100510.25;;;14.88;30.63
12073;BME280;6098;49.004;8.372;2023-04-06T12:52:36;100498.98;;;15.30;30.04
12073;BME280;6098;49.004;8.372;2023-04-06T13:07:28;100492.67;;;15.23;28.60
12073;BME280;6098;49.004;8.372;2023-04-06T13:22:20;100488.55;;;15.34;26.73
12073;BME280;6098;49.004;8.372;2023-04-06T13:37:14;100487.97;;;15.52;26.28
12073;BME280;6098;49.004;8.372;2023-04-06T13:52:07;100470.78;;;15.65;25.88
12073;BME280;6098;49.004;8.372;2023-04-06T14:06:59;100449.91;;;15.70;27.42
12073;BME280;6098;49.004;8.372;2023-04-06T14:21:50;100459.43;;;15.68;28.49
12073;BME280;6098;49.004;8.372;2023-04-06T14:36:41;100454.66;;;15.51;30.00
12073;BME280;6098;49.004;8.372;2023-04-06T14:51:30;100457.06;;;15.24;30.86
12073;BME280;6098;49.004;8.372;2023-04-06T15:06:20;100454.06;;;14.99;31.25
12073;BME280;6098;49.004;8.372;2023-04-06T15:21:10;100448.52;;;14.86;31.60
12073;BME280;6098;49.004;8.372;2023-04-06T15:36:02;100446.39;;;14.52;32.59
12073;BME280;6098;49.004;8.372;2023-04-06T15:50:51;100444.11;;;14.29;33.70
12073;BME280;6098;49.004;8.372;2023-04-06T16:05:41;100447.14;;;14.22;35.08
12073;BME280;6098;49.004;8.372;2023-04-06T16:20:34;100440.79;;;14.16;35.11
12073;BME280;6098;49.004;8.372;2023-04-06T16:35:23;100449.50;;;13.76;36.43
12073;BME280;6098;49.004;8.372;2023-04-06T16:50:16;100459.02;;;13.55;37.42
12073;BME280;6098;49.004;8.372;2023-04-06T17:05:06;100466.20;;;13.26;38.75
12073;BME280;6098;49.004;8.372;2023-04-06T17:19:56;100473.09;;;13.03;39.48
12073;BME280;6098;49.004;8.372;2023-04-06T17:34:47;100480.83;;;12.89;41.38
12073;BME280;6098;49.004;8.372;2023-04-06T17:49:38;100480.24;;;12.64;42.00
12073;BME280;6098;49.004;8.372;2023-04-06T18:04:27;100499.30;;;12.44;43.86
12073;BME280;6098;49.004;8.372;2023-04-06T18:19:17;100513.00;;;12.05;48.25
12073;BME280;6098;49.004;8.372;2023-04-06T18:34:07;100524.81;;;11.87;50.90
12073;BME280;6098;49.004;8.372;2023-04-06T18:48:58;100531.53;;;11.53;52.87
12073;BME280;6098;49.004;8.372;2023-04-06T19:03:48;100540.77;;;11.43;55.85
12073;BME280;6098;49.004;8.372;2023-04-06T19:18:39;100556.92;;;11.26;62.39
12073;BME280;6098;49.004;8.372;2023-04-06T19:33:34;100563.02;;;10.94;67.55
12073;BME280;6098;49.004;8.372;2023-04-06T19:48:23;100554.58;;;10.72;71.12
12073;BME280;6098;49.004;8.372;2023-04-06T20:03:24;100555.42;;;10.48;74.17
12073;BME280;6098;49.004;8.372;2023-04-06T20:18:12;100555.33;;;10.27;78.08
12073;BME280;6098;49.004;8.372;2023-04-06T20:33:03;100536.34;;;10.14;79.35
12073;BME280;6098;49.004;8.372;2023-04-06T20:47:53;100523.47;;;10.03;79.47
12073;BME280;6098;49.004;8.372;2023-04-06T21:02:44;100499.05;;;9.81;79.45
12073;BME280;6098;49.004;8.372;2023-04-06T21:17:34;100484.66;;;9.77;79.24
12073;BME280;6098;49.004;8.372;2023-04-06T21:32:25;100478.55;;;9.75;78.76
12073;BME280;6098;49.004;8.372;2023-04-06T21:47:16;100468.98;;;9.71;77.34
12073;BME280;6098;49.004;8.372;2023-04-06T22:02:06;100454.80;;;9.59;76.90
12073;BME280;6098;49.004;8.372;2023-04-06T22:16:58;100448.27;;;9.69;77.10
12073;BME280;6098;49.004;8.372;2023-04-06T22:31:49;100428.08;;;9.67;76.63
12073;BME280;6098;49.004;8.372;2023-04-06T22:46:40;100409.00;;;9.70;78.50
12073;BME280;6098;49.004;8.372;2023-04-06T23:01:31;100395.02;;;9.66;77.17
12073;BME280;6098;49.004;8.372;2023-04-06T23:16:22;100397.02;;;9.72;76.81
12073;BME280;6098;49.004;8.372;2023-04-06T23:31:12;100398.55;;;9.66;76.56
12073;BME280;6098;49.004;8.372;2023-04-06T23:46:03;100384.55;;;9.63;78.17
